Řízení letového provozu České republiky
Letiste: LKNA Aktualizace: 12.11.2018 20:01:06  UTC
 METAR LKNA 12.11. 20:00 ...
METAR LKNA 122000Z 08005KT 6000 FEW023 09/07 Q1023 NOSIG RMK WHT WHT=
 TAF LKNA 12.11. 17:00 ...
TAF LKNA 121700Z 1218/1318 13004KT 3500 BR BKN015      BECMG 1218/1221 VRB02KT 1200 BR OVC003      TEMPO 1219/1307 0400 FG VV001      BECMG 1310/1312 18006KT 3000 BKN010      BECMG 1314/1316 30006KT 7000 SCT020=